Time;durP1;ratioP1;P1;durP2;ratioP2;P2;SDS_P1;SDS_P2;PMS_P1;PMS_P2;Temp;Humidity;BMP_temperature;BMP_pressure;BME280_temperature;BME280_humidity;BME280_pressure;Samples;Min_cycle;Max_cycle;Signal;HPM_P1;HPM_P2
2021/12/25 00:00:00;;;;;;;31.73;20.80;;;;;;;;;;6156185;23;20522;-74
2021/12/25 00:02:28;;;;;;;25.90;16.23;;;;;;;;;;6157624;23;20186;-73
2021/12/25 00:04:55;;;;;;;30.30;20.10;;;;;;;;;;6155545;23;20544;-74
2021/12/25 00:07:23;;;;;;;28.23;18.97;;;;;;;;;;6156207;23;20209;-74
2021/12/25 00:09:51;;;;;;;29.77;18.87;;;;;;;;;;6157041;23;20185;-77
2021/12/25 00:12:18;;;;;;;28.93;18.63;;;;;;;;;;6157102;23;20191;-74
2021/12/25 00:14:45;;;;;;;28.83;19.50;;;;;;;;;;6157253;23;20260;-73
2021/12/25 00:17:13;;;;;;;35.80;21.47;;;;;;;;;;6156913;23;20263;-73
2021/12/25 00:19:40;;;;;;;27.67;18.63;;;;;;;;;;6157299;23;20201;-73
2021/12/25 00:22:07;;;;;;;28.17;17.27;;;;;;;;;;6157156;23;20177;-74
2021/12/25 00:24:35;;;;;;;31.23;21.03;;;;;;;;;;6157219;23;20297;-74
2021/12/25 00:27:10;;;;;;;39.43;22.27;;;;;;;;;;6156684;23;20212;-71
2021/12/25 00:34:41;;;;;;;18.30;10.70;;;;;;;;;;6156664;23;20181;-77
2021/12/25 00:37:09;;;;;;;6.90;3.60;;;;;;;;;;6157060;23;20267;-82
2021/12/25 00:39:36;;;;;;;4.23;3.00;;;;;;;;;;6131154;23;20197;-75
2021/12/25 00:42:05;;;;;;;6.27;3.73;;;;;;;;;;6157131;23;20181;-73
2021/12/25 00:44:33;;;;;;;9.07;4.63;;;;;;;;;;6155196;23;20680;-74
2021/12/25 00:47:03;;;;;;;5.17;3.40;;;;;;;;;;6131333;23;20613;-72
2021/12/25 00:49:31;;;;;;;6.33;4.20;;;;;;;;;;6156619;23;20188;-72
2021/12/25 00:51:58;;;;;;;10.33;4.43;;;;;;;;;;6155042;23;20726;-73
2021/12/25 00:54:26;;;;;;;7.07;3.93;;;;;;;;;;6155476;23;20181;-73
2021/12/25 00:56:54;;;;;;;6.40;3.87;;;;;;;;;;6156359;23;20664;-76
2021/12/25 00:59:21;;;;;;;6.17;3.50;;;;;;;;;;6155272;23;20181;-73
2021/12/25 01:01:48;;;;;;;4.27;3.00;;;;;;;;;;6154531;23;20196;-73
2021/12/25 01:04:16;;;;;;;5.03;3.20;;;;;;;;;;6156875;23;20182;-73
2021/12/25 01:06:46;;;;;;;3.80;2.20;;;;;;;;;;6155269;23;20236;-78
2021/12/25 01:09:13;;;;;;;4.43;2.77;;;;;;;;;;6156575;23;20508;-79
2021/12/25 01:11:43;;;;;;;3.37;1.97;;;;;;;;;;6156620;23;20181;-78
2021/12/25 01:14:24;;;;;;;2.60;1.73;;;;;;;;;;6155315;23;20181;-73
2021/12/25 01:23:30;;;;;;;4.47;1.40;;;;;;;;;;6079285;23;20190;-74
2021/12/25 01:31:38;;;;;;;2.23;1.10;;;;;;;;;;6164696;23;20179;-72
2021/12/25 01:37:00;;;;;;;3.53;1.70;;;;;;;;;;6166175;23;20554;-73
2021/12/25 01:40:17;;;;;;;3.13;1.53;;;;;;;;;;6122268;23;20181;-72
2021/12/25 01:48:22;;;;;;;2.77;1.20;;;;;;;;;;6154667;23;20655;-73
2021/12/25 01:50:50;;;;;;;3.57;1.77;;;;;;;;;;6154968;23;20543;-77
2021/12/25 01:53:18;;;;;;;3.67;2.43;;;;;;;;;;6154786;23;20182;-79
2021/12/25 01:55:45;;;;;;;3.50;2.17;;;;;;;;;;6155044;23;20181;-74
2021/12/25 01:58:14;;;;;;;4.07;2.70;;;;;;;;;;6154758;23;20719;-73
2021/12/25 02:00:49;;;;;;;3.70;1.90;;;;;;;;;;6154866;23;20188;-78
2021/12/25 02:03:21;;;;;;;3.73;2.23;;;;;;;;;;6156535;23;20190;-72
2021/12/25 02:05:49;;;;;;;3.47;2.40;;;;;;;;;;6153993;23;20200;-74
2021/12/25 02:08:27;;;;;;;6.00;3.13;;;;;;;;;;6142108;23;20165;-72
2021/12/25 02:10:55;;;;;;;5.37;2.80;;;;;;;;;;6154131;23;20687;-72
2021/12/25 02:13:23;;;;;;;8.20;2.07;;;;;;;;;;6154462;23;20182;-73
2021/12/25 02:15:53;;;;;;;4.23;3.00;;;;;;;;;;6154704;23;20515;-73
2021/12/25 02:19:02;;;;;;;3.00;2.23;;;;;;;;;;6129664;23;20280;-72
2021/12/25 02:21:32;;;;;;;5.30;2.47;;;;;;;;;;6137110;23;20248;-73
2021/12/25 02:23:59;;;;;;;3.03;2.47;;;;;;;;;;6131369;23;20180;-73
2021/12/25 02:26:27;;;;;;;4.13;2.80;;;;;;;;;;6155811;23;20205;-74
2021/12/25 02:28:54;;;;;;;3.77;2.40;;;;;;;;;;6154698;23;20185;-72
2021/12/25 02:31:23;;;;;;;3.50;2.43;;;;;;;;;;6155883;23;20219;-75
2021/12/25 02:33:50;;;;;;;6.37;3.40;;;;;;;;;;6154576;23;20257;-73
2021/12/25 02:36:18;;;;;;;5.87;3.10;;;;;;;;;;6154651;23;20216;-72
2021/12/25 02:38:46;;;;;;;4.10;2.77;;;;;;;;;;6157971;23;20209;-73
2021/12/25 02:41:15;;;;;;;4.40;2.97;;;;;;;;;;6156641;23;20212;-73
2021/12/25 02:43:45;;;;;;;4.73;2.93;;;;;;;;;;6156600;23;20204;-73
2021/12/25 02:46:16;;;;;;;3.17;1.97;;;;;;;;;;6156947;23;20170;-72
2021/12/25 02:48:43;;;;;;;3.17;2.33;;;;;;;;;;6156766;23;20232;-73
2021/12/25 02:51:12;;;;;;;2.50;1.87;;;;;;;;;;6156852;23;20189;-73
2021/12/25 02:53:40;;;;;;;2.53;1.57;;;;;;;;;;6158007;23;20186;-74
2021/12/25 02:56:08;;;;;;;3.43;1.83;;;;;;;;;;6157993;23;20181;-73
2021/12/25 02:58:39;;;;;;;2.47;1.60;;;;;;;;;;6156327;23;20217;-73
2021/12/25 03:01:16;;;;;;;3.77;1.30;;;;;;;;;;6156470;23;20766;-72
2021/12/25 03:03:45;;;;;;;4.43;1.73;;;;;;;;;;6156672;23;20170;-73
2021/12/25 03:06:13;;;;;;;3.10;1.70;;;;;;;;;;6157750;23;20609;-72
2021/12/25 03:08:41;;;;;;;2.93;1.30;;;;;;;;;;6156305;23;20185;-72
2021/12/25 03:11:10;;;;;;;3.50;1.10;;;;;;;;;;6156396;23;20216;-72
2021/12/25 03:13:57;;;;;;;1.80;1.27;;;;;;;;;;6156228;23;20524;-72
2021/12/25 03:16:27;;;;;;;1.40;1.30;;;;;;;;;;6166122;23;20175;-72
2021/12/25 03:18:59;;;;;;;1.23;1.07;;;;;;;;;;6156218;23;20209;-71
2021/12/25 03:21:26;;;;;;;1.77;1.27;;;;;;;;;;6157614;23;20189;-73
2021/12/25 03:23:54;;;;;;;1.90;1.17;;;;;;;;;;6157816;23;20181;-72
2021/12/25 03:26:22;;;;;;;1.97;1.47;;;;;;;;;;6157152;23;20716;-72
2021/12/25 03:28:52;;;;;;;3.23;1.40;;;;;;;;;;6157971;23;20531;-75
2021/12/25 03:31:21;;;;;;;2.93;1.90;;;;;;;;;;6167570;23;20248;-73
2021/12/25 03:33:53;;;;;;;2.27;1.47;;;;;;;;;;6166252;23;20173;-74
2021/12/25 03:36:21;;;;;;;1.63;1.53;;;;;;;;;;6155870;23;20672;-72
2021/12/25 03:38:49;;;;;;;1.30;1.13;;;;;;;;;;6157733;23;20202;-72
2021/12/25 03:41:18;;;;;;;1.97;1.47;;;;;;;;;;6156362;23;20186;-73
2021/12/25 03:43:46;;;;;;;2.87;1.60;;;;;;;;;;6156036;23;20511;-73
2021/12/25 03:46:15;;;;;;;3.30;2.07;;;;;;;;;;6157426;23;20529;-72
2021/12/25 03:49:02;;;;;;;5.40;2.30;;;;;;;;;;6155900;23;20185;-72
2021/12/25 03:59:41;;;;;;;1.50;1.40;;;;;;;;;;6165604;23;20224;-72
2021/12/25 04:02:17;;;;;;;3.63;1.90;;;;;;;;;;6157173;23;20695;-73
2021/12/25 04:04:48;;;;;;;3.67;2.10;;;;;;;;;;6157632;23;20169;-76
2021/12/25 04:09:46;;;;;;;3.30;1.93;;;;;;;;;;6155417;23;20505;-72
2021/12/25 04:12:16;;;;;;;2.63;1.67;;;;;;;;;;6155539;23;20181;-75
2021/12/25 04:14:48;;;;;;;3.63;1.83;;;;;;;;;;6165845;23;20169;-77
2021/12/25 04:17:15;;;;;;;2.03;1.70;;;;;;;;;;6155657;23;20181;-75
2021/12/25 04:19:43;;;;;;;2.07;1.73;;;;;;;;;;6155678;23;20183;-76
2021/12/25 04:22:17;;;;;;;2.37;2.10;;;;;;;;;;6155651;23;20185;-74
2021/12/25 04:24:46;;;;;;;4.23;1.90;;;;;;;;;;6155402;23;20175;-74
2021/12/25 04:27:16;;;;;;;2.90;1.90;;;;;;;;;;6156755;23;20241;-72
2021/12/25 04:49:04;;;;;;;3.53;1.97;;;;;;;;;;6165258;23;20172;-71
2021/12/25 05:04:40;;;;;;;4.03;2.60;;;;;;;;;;6155392;23;20197;-71
2021/12/25 05:07:27;;;;;;;2.10;1.67;;;;;;;;;;6155790;23;20229;-75
2021/12/25 05:09:57;;;;;;;2.50;1.60;;;;;;;;;;6155356;23;20188;-71
2021/12/25 05:12:24;;;;;;;4.83;2.50;;;;;;;;;;6155448;23;20181;-72
2021/12/25 05:14:51;;;;;;;5.23;2.83;;;;;;;;;;6155049;23;20181;-73
2021/12/25 05:17:19;;;;;;;2.40;2.20;;;;;;;;;;6155303;23;20181;-74
2021/12/25 05:19:46;;;;;;;3.53;2.50;;;;;;;;;;6155275;23;20554;-72
2021/12/25 05:22:15;;;;;;;1.87;1.73;;;;;;;;;;6155149;23;20180;-72
2021/12/25 05:24:43;;;;;;;4.50;2.27;;;;;;;;;;6154944;23;20185;-74
2021/12/25 05:27:12;;;;;;;3.77;2.20;;;;;;;;;;6154618;23;20216;-73
2021/12/25 05:29:45;;;;;;;3.13;1.97;;;;;;;;;;6155652;23;20259;-73
2021/12/25 05:32:18;;;;;;;4.50;2.47;;;;;;;;;;6155146;23;20170;-73
2021/12/25 05:35:01;;;;;;;7.13;2.43;;;;;;;;;;6134197;23;20173;-75
2021/12/25 05:37:58;;;;;;;3.23;2.20;;;;;;;;;;6150826;23;20304;-73
2021/12/25 05:40:42;;;;;;;4.37;2.20;;;;;;;;;;6156448;23;20220;-72
2021/12/25 05:43:10;;;;;;;4.83;2.43;;;;;;;;;;6130550;23;20200;-73
2021/12/25 05:45:37;;;;;;;4.77;2.67;;;;;;;;;;6156391;23;20187;-72
2021/12/25 05:48:19;;;;;;;8.23;3.67;;;;;;;;;;6154755;23;20240;-72
2021/12/25 05:51:07;;;;;;;3.83;2.53;;;;;;;;;;6154165;23;20240;-73
2021/12/25 05:53:48;;;;;;;4.77;2.90;;;;;;;;;;6156380;23;20530;-72
2021/12/25 05:56:29;;;;;;;3.90;2.50;;;;;;;;;;6165959;23;20170;-72
2021/12/25 05:59:11;;;;;;;5.33;2.93;;;;;;;;;;6164027;23;20500;-74
2021/12/25 06:02:02;;;;;;;3.23;2.60;;;;;;;;;;6144136;23;20240;-74
2021/12/25 06:04:31;;;;;;;4.87;3.37;;;;;;;;;;6154609;23;20240;-75
2021/12/25 06:06:59;;;;;;;5.27;3.23;;;;;;;;;;6130344;23;20235;-73
2021/12/25 06:09:26;;;;;;;7.87;4.40;;;;;;;;;;6155655;23;20193;-73
2021/12/25 06:11:54;;;;;;;12.37;5.57;;;;;;;;;;6155610;23;20181;-78
2021/12/25 06:14:22;;;;;;;5.73;3.97;;;;;;;;;;6154384;23;20623;-74
2021/12/25 06:17:11;;;;;;;8.97;4.43;;;;;;;;;;6154012;23;20606;-77
2021/12/25 06:19:48;;;;;;;10.03;4.90;;;;;;;;;;6153891;23;20197;-75
2021/12/25 06:22:31;;;;;;;9.60;4.90;;;;;;;;;;6165753;23;20188;-81
2021/12/25 06:25:18;;;;;;;9.57;5.93;;;;;;;;;;6154494;23;20499;-71
2021/12/25 06:28:00;;;;;;;37.10;12.67;;;;;;;;;;6155554;23;20171;-72
2021/12/25 06:30:45;;;;;;;10.03;5.87;;;;;;;;;;6152520;23;20189;-77
2021/12/25 06:33:33;;;;;;;12.13;6.80;;;;;;;;;;6155369;23;20208;-74
2021/12/25 06:36:14;;;;;;;10.60;6.13;;;;;;;;;;6154339;23;20169;-74
2021/12/25 06:38:56;;;;;;;8.87;5.23;;;;;;;;;;6164530;23;20197;-71
2021/12/25 06:41:31;;;;;;;10.63;5.33;;;;;;;;;;6155581;23;20593;-71
2021/12/25 06:44:00;;;;;;;10.03;5.53;;;;;;;;;;6154035;23;20182;-73
2021/12/25 06:46:47;;;;;;;9.83;4.27;;;;;;;;;;6154751;23;20185;-77
2021/12/25 06:49:15;;;;;;;26.17;11.17;;;;;;;;;;6150859;23;20197;-72
2021/12/25 06:52:09;;;;;;;16.30;6.20;;;;;;;;;;6131284;23;20189;-78
2021/12/25 06:54:46;;;;;;;10.33;5.00;;;;;;;;;;6164834;23;20224;-70
2021/12/25 06:57:29;;;;;;;9.20;5.07;;;;;;;;;;6163390;23;20217;-76
2021/12/25 07:00:00;;;;;;;13.30;6.43;;;;;;;;;;6162835;23;20219;-76
2021/12/25 07:02:27;;;;;;;11.37;5.00;;;;;;;;;;6152783;23;20208;-73
2021/12/25 07:05:10;;;;;;;23.37;7.03;;;;;;;;;;6154430;23;20169;-73
2021/12/25 07:07:52;;;;;;;24.23;8.47;;;;;;;;;;6130726;23;20169;-75
2021/12/25 07:10:27;;;;;;;10.67;6.07;;;;;;;;;;6161978;23;20200;-73
2021/12/25 07:13:15;;;;;;;14.73;6.40;;;;;;;;;;6153889;23;20170;-75
2021/12/25 07:16:01;;;;;;;11.93;4.93;;;;;;;;;;6152554;23;20173;-73
2021/12/25 07:18:42;;;;;;;7.77;4.10;;;;;;;;;;6152738;23;20204;-76
2021/12/25 07:21:33;;;;;;;10.37;4.53;;;;;;;;;;6138910;23;20324;-71
2021/12/25 07:24:16;;;;;;;4.93;3.60;;;;;;;;;;6152280;23;20173;-71
2021/12/25 07:26:53;;;;;;;8.13;4.03;;;;;;;;;;6155027;23;20205;-76
2021/12/25 07:29:33;;;;;;;12.90;6.27;;;;;;;;;;6152752;23;20193;-71
2021/12/25 07:32:03;;;;;;;18.73;8.30;;;;;;;;;;6155132;23;20181;-71
2021/12/25 07:34:40;;;;;;;7.90;4.50;;;;;;;;;;6154766;23;20173;-72
2021/12/25 07:37:07;;;;;;;14.37;6.73;;;;;;;;;;6155582;23;20260;-72
2021/12/25 07:39:34;;;;;;;11.53;4.57;;;;;;;;;;6156330;23;20205;-69
2021/12/25 07:42:02;;;;;;;15.23;6.33;;;;;;;;;;6153410;23;20180;-70
2021/12/25 07:44:55;;;;;;;11.63;4.70;;;;;;;;;;6156005;23;20181;-70
2021/12/25 07:47:23;;;;;;;17.70;6.00;;;;;;;;;;6155056;23;20169;-72
2021/12/25 07:49:51;;;;;;;26.83;8.23;;;;;;;;;;6131330;23;20260;-71
2021/12/25 07:52:19;;;;;;;26.83;9.30;;;;;;;;;;6155308;23;20243;-69
2021/12/25 07:54:46;;;;;;;22.63;8.00;;;;;;;;;;6155105;23;20188;-73
2021/12/25 07:57:15;;;;;;;17.40;6.47;;;;;;;;;;6155561;23;20192;-71
2021/12/25 07:59:46;;;;;;;32.90;11.33;;;;;;;;;;6157068;23;20208;-72
2021/12/25 08:02:14;;;;;;;21.67;10.93;;;;;;;;;;6153876;23;20260;-72
2021/12/25 08:04:41;;;;;;;18.10;9.23;;;;;;;;;;6155548;23;20181;-70
2021/12/25 08:07:09;;;;;;;22.97;7.73;;;;;;;;;;6156382;23;20487;-72
2021/12/25 08:09:37;;;;;;;28.70;9.27;;;;;;;;;;6155112;23;20248;-73
2021/12/25 08:12:05;;;;;;;15.77;5.07;;;;;;;;;;6155273;23;20232;-74
2021/12/25 08:14:34;;;;;;;25.67;7.27;;;;;;;;;;6153671;23;20205;-77
2021/12/25 08:17:03;;;;;;;12.33;4.97;;;;;;;;;;6150932;23;20193;-75
2021/12/25 08:19:44;;;;;;;24.07;7.03;;;;;;;;;;6153999;23;20207;-74
2021/12/25 08:22:27;;;;;;;13.40;5.67;;;;;;;;;;6165756;23;20173;-75
2021/12/25 08:25:12;;;;;;;21.77;5.90;;;;;;;;;;6152972;23;20213;-74
2021/12/25 08:27:53;;;;;;;17.10;4.70;;;;;;;;;;6164465;23;20170;-78
2021/12/25 08:30:35;;;;;;;11.47;4.73;;;;;;;;;;6152989;23;20180;-77
2021/12/25 08:33:23;;;;;;;26.83;8.07;;;;;;;;;;6121435;23;20251;-76
2021/12/25 08:36:04;;;;;;;14.40;5.67;;;;;;;;;;6163523;23;20196;-75
2021/12/25 08:38:32;;;;;;;17.23;5.33;;;;;;;;;;6153295;23;20209;-76
2021/12/25 08:41:00;;;;;;;27.43;13.33;;;;;;;;;;6156073;23;20181;-75
2021/12/25 08:43:33;;;;;;;10.47;4.33;;;;;;;;;;6156227;23;20185;-75
2021/12/25 08:46:03;;;;;;;11.27;4.70;;;;;;;;;;6156370;23;20663;-77
2021/12/25 08:48:31;;;;;;;16.07;6.27;;;;;;;;;;6153504;23;20231;-78
2021/12/25 08:50:59;;;;;;;15.10;5.30;;;;;;;;;;6156186;23;20185;-78
2021/12/25 08:53:28;;;;;;;24.97;7.97;;;;;;;;;;6154222;23;20625;-75
2021/12/25 08:55:57;;;;;;;15.07;6.40;;;;;;;;;;6153833;23;20188;-76
2021/12/25 08:58:26;;;;;;;23.77;6.93;;;;;;;;;;6153380;23;20593;-80
2021/12/25 09:00:56;;;;;;;13.53;5.13;;;;;;;;;;6155540;23;20188;-76
2021/12/25 09:03:25;;;;;;;20.17;6.53;;;;;;;;;;6155161;23;20228;-76
2021/12/25 09:05:55;;;;;;;21.97;6.63;;;;;;;;;;6155378;23;20545;-75
2021/12/25 09:08:23;;;;;;;13.47;4.83;;;;;;;;;;6154603;23;20241;-77
2021/12/25 09:10:51;;;;;;;23.37;7.60;;;;;;;;;;6154321;23;20596;-78
2021/12/25 09:13:19;;;;;;;80.00;16.87;;;;;;;;;;6155444;23;20189;-74
2021/12/25 09:15:46;;;;;;;14.63;6.10;;;;;;;;;;6155415;23;20236;-77
2021/12/25 09:18:14;;;;;;;28.40;9.90;;;;;;;;;;6152086;23;20529;-76
2021/12/25 09:20:41;;;;;;;23.07;7.23;;;;;;;;;;6150124;23;20196;-77
2021/12/25 09:23:08;;;;;;;13.17;5.43;;;;;;;;;;6155388;23;20205;-73
2021/12/25 09:25:50;;;;;;;12.97;5.63;;;;;;;;;;6153435;23;20263;-72
2021/12/25 09:28:18;;;;;;;17.67;7.20;;;;;;;;;;6163890;23;20174;-70
2021/12/25 09:30:46;;;;;;;15.90;5.43;;;;;;;;;;6154915;23;20680;-72
2021/12/25 09:33:13;;;;;;;10.20;5.17;;;;;;;;;;6153396;23;20499;-74
2021/12/25 09:35:40;;;;;;;12.27;4.93;;;;;;;;;;6155376;23;20178;-69
2021/12/25 09:38:07;;;;;;;25.77;9.67;;;;;;;;;;6155376;23;20185;-71
2021/12/25 09:40:35;;;;;;;32.90;9.07;;;;;;;;;;6154272;23;20205;-70
2021/12/25 09:43:02;;;;;;;12.83;5.17;;;;;;;;;;6155736;23;20193;-70
2021/12/25 09:45:29;;;;;;;10.57;4.40;;;;;;;;;;6155380;23;20256;-70
2021/12/25 09:47:57;;;;;;;20.47;7.77;;;;;;;;;;6154402;23;20177;-71
2021/12/25 09:50:24;;;;;;;16.47;6.07;;;;;;;;;;6155465;23;20496;-69
2021/12/25 09:52:51;;;;;;;8.47;4.50;;;;;;;;;;6155698;23;20192;-69
2021/12/25 09:55:18;;;;;;;18.77;7.40;;;;;;;;;;6155477;23;20201;-69
2021/12/25 09:57:46;;;;;;;20.17;7.67;;;;;;;;;;6155515;23;20185;-72
2021/12/25 10:00:19;;;;;;;22.30;8.67;;;;;;;;;;6154452;23;20256;-70
2021/12/25 10:02:50;;;;;;;13.67;6.13;;;;;;;;;;6165354;23;20197;-70
2021/12/25 10:05:30;;;;;;;12.70;6.57;;;;;;;;;;6155265;23;20174;-69
2021/12/25 10:08:11;;;;;;;16.67;7.60;;;;;;;;;;6126769;23;20173;-69
2021/12/25 10:10:50;;;;;;;16.33;7.07;;;;;;;;;;6162476;23;20601;-70
2021/12/25 10:13:19;;;;;;;17.90;7.57;;;;;;;;;;6161205;23;20609;-72
2021/12/25 10:15:47;;;;;;;27.07;8.50;;;;;;;;;;6153970;23;20181;-73
2021/12/25 10:18:15;;;;;;;15.43;7.07;;;;;;;;;;6154140;23;20188;-76
2021/12/25 10:20:42;;;;;;;15.33;6.53;;;;;;;;;;6127801;23;20299;-71
2021/12/25 10:23:14;;;;;;;19.97;8.70;;;;;;;;;;6153359;23;20185;-76
2021/12/25 10:25:53;;;;;;;19.60;8.17;;;;;;;;;;6154268;23;20244;-73
2021/12/25 10:28:31;;;;;;;17.50;7.07;;;;;;;;;;6154230;23;20180;-75
2021/12/25 10:31:03;;;;;;;15.73;7.03;;;;;;;;;;6164098;23;20176;-75
2021/12/25 10:33:44;;;;;;;15.63;6.43;;;;;;;;;;6155347;23;20507;-72
2021/12/25 10:36:25;;;;;;;17.90;8.10;;;;;;;;;;6164652;23;20169;-71
2021/12/25 10:39:02;;;;;;;13.00;5.97;;;;;;;;;;6163737;23;20217;-75
2021/12/25 10:41:33;;;;;;;27.60;9.23;;;;;;;;;;6155083;23;20256;-79
2021/12/25 10:44:25;;;;;;;10.30;5.90;;;;;;;;;;6153645;23;20172;-78
2021/12/25 10:46:55;;;;;;;12.87;6.13;;;;;;;;;;6155439;23;20189;-70
2021/12/25 10:49:26;;;;;;;21.43;9.30;;;;;;;;;;6163259;23;20189;-70
2021/12/25 10:51:54;;;;;;;36.00;12.07;;;;;;;;;;6154573;23;20201;-69
2021/12/25 10:54:43;;;;;;;27.43;9.43;;;;;;;;;;6155569;23;20188;-74
2021/12/25 10:57:11;;;;;;;20.77;8.03;;;;;;;;;;6155569;23;20177;-74
2021/12/25 10:59:43;;;;;;;19.50;8.47;;;;;;;;;;6155270;23;20201;-74
2021/12/25 11:02:28;;;;;;;41.83;14.53;;;;;;;;;;6155768;23;20178;-74
2021/12/25 11:04:56;;;;;;;22.30;9.50;;;;;;;;;;6163687;23;20619;-72
2021/12/25 11:07:25;;;;;;;22.80;8.53;;;;;;;;;;6155042;23;20224;-76
2021/12/25 11:10:09;;;;;;;16.63;7.87;;;;;;;;;;6153169;23;20286;-72
2021/12/25 11:12:37;;;;;;;15.67;6.43;;;;;;;;;;6164357;23;20261;-70
2021/12/25 11:15:32;;;;;;;17.20;7.13;;;;;;;;;;6156357;23;20189;-70
2021/12/25 11:18:06;;;;;;;13.70;6.27;;;;;;;;;;6153516;23;20189;-72
2021/12/25 11:20:38;;;;;;;39.30;11.50;;;;;;;;;;6154789;23;20200;-78
2021/12/25 11:23:14;;;;;;;21.80;9.13;;;;;;;;;;6164843;23;20628;-80
2021/12/25 11:25:42;;;;;;;23.87;11.30;;;;;;;;;;6156389;23;20229;-70
2021/12/25 11:28:11;;;;;;;16.60;7.27;;;;;;;;;;6156414;23;20597;-71
2021/12/25 11:30:45;;;;;;;18.77;7.17;;;;;;;;;;6130398;23;20208;-72
2021/12/25 11:33:13;;;;;;;17.23;6.37;;;;;;;;;;6156237;23;20172;-72
2021/12/25 11:35:40;;;;;;;16.27;7.03;;;;;;;;;;6156215;23;20181;-75
2021/12/25 11:38:09;;;;;;;17.37;6.93;;;;;;;;;;6155242;23;20182;-74
2021/12/25 11:40:41;;;;;;;19.37;7.20;;;;;;;;;;6156781;23;20292;-70
2021/12/25 11:43:08;;;;;;;16.50;7.10;;;;;;;;;;6166601;23;20193;-77
2021/12/25 11:45:40;;;;;;;54.90;18.43;;;;;;;;;;6156084;23;20289;-71
2021/12/25 11:48:19;;;;;;;36.27;12.33;;;;;;;;;;6165409;23;20504;-69
2021/12/25 11:50:51;;;;;;;24.77;9.30;;;;;;;;;;6140805;23;20656;-69
2021/12/25 11:53:41;;;;;;;17.53;8.07;;;;;;;;;;6165293;23;20278;-73
2021/12/25 11:58:54;;;;;;;16.50;7.77;;;;;;;;;;6167042;23;20229;-72
2021/12/25 12:01:26;;;;;;;17.97;7.23;;;;;;;;;;6157173;23;20173;-72
2021/12/25 12:04:00;;;;;;;18.20;7.80;;;;;;;;;;6155601;23;20170;-73
2021/12/25 12:06:56;;;;;;;15.03;7.97;;;;;;;;;;6157103;23;20177;-71
2021/12/25 12:09:53;;;;;;;18.93;7.53;;;;;;;;;;6166588;23;20220;-72
2021/12/25 12:12:41;;;;;;;16.13;6.10;;;;;;;;;;6125971;23;20242;-70
2021/12/25 12:15:24;;;;;;;22.40;8.23;;;;;;;;;;6166803;23;20621;-70
2021/12/25 12:18:26;;;;;;;16.80;6.67;;;;;;;;;;6166528;23;20170;-70
2021/12/25 12:21:06;;;;;;;25.87;9.50;;;;;;;;;;6166262;23;20565;-72
2021/12/25 12:26:10;;;;;;;15.43;7.13;;;;;;;;;;6156458;23;20213;-71
2021/12/25 12:28:52;;;;;;;13.47;5.93;;;;;;;;;;6165137;23;20195;-71
2021/12/25 12:31:39;;;;;;;23.43;8.30;;;;;;;;;;6156929;23;20170;-72
2021/12/25 12:34:29;;;;;;;16.87;6.33;;;;;;;;;;6156761;23;20176;-71
2021/12/25 12:37:25;;;;;;;16.53;6.73;;;;;;;;;;6156680;23;20212;-71
2021/12/25 12:40:02;;;;;;;16.73;7.83;;;;;;;;;;6154577;23;20661;-71
2021/12/25 12:42:45;;;;;;;17.70;6.43;;;;;;;;;;6166370;23;20249;-71
2021/12/25 12:45:23;;;;;;;16.03;7.50;;;;;;;;;;6156854;23;20542;-71
2021/12/25 12:48:08;;;;;;;16.30;7.13;;;;;;;;;;6156747;23;20174;-72
2021/12/25 12:50:37;;;;;;;16.67;7.17;;;;;;;;;;6164819;23;20217;-71
2021/12/25 12:53:09;;;;;;;15.90;7.50;;;;;;;;;;6156590;23;20189;-71
2021/12/25 12:55:42;;;;;;;15.73;7.03;;;;;;;;;;6155256;23;20170;-71
2021/12/25 12:58:16;;;;;;;16.70;6.90;;;;;;;;;;6154816;23;20605;-73
2021/12/25 13:00:55;;;;;;;14.87;6.40;;;;;;;;;;6156607;23;20257;-71
2021/12/25 13:03:24;;;;;;;18.37;9.43;;;;;;;;;;6156519;23;20176;-72
2021/12/25 13:06:06;;;;;;;24.67;10.53;;;;;;;;;;6156467;23;20216;-71
2021/12/25 13:08:35;;;;;;;20.77;9.00;;;;;;;;;;6156546;23;20249;-71
2021/12/25 13:11:18;;;;;;;18.47;8.03;;;;;;;;;;6156475;23;20182;-70
2021/12/25 13:13:59;;;;;;;21.30;8.70;;;;;;;;;;6164701;23;20169;-74
2021/12/25 13:16:39;;;;;;;19.07;8.43;;;;;;;;;;6156410;23;20197;-71
2021/12/25 13:19:09;;;;;;;18.43;7.80;;;;;;;;;;6156133;23;20170;-70
2021/12/25 13:21:37;;;;;;;19.17;8.40;;;;;;;;;;6155744;23;20562;-70
2021/12/25 13:24:10;;;;;;;22.43;7.87;;;;;;;;;;6156266;23;20201;-71
2021/12/25 13:26:42;;;;;;;19.47;8.40;;;;;;;;;;6159786;23;20567;-71
2021/12/25 13:29:14;;;;;;;16.90;8.37;;;;;;;;;;6164406;23;20672;-71
2021/12/25 13:31:43;;;;;;;19.80;9.30;;;;;;;;;;6155948;23;20174;-72
2021/12/25 13:34:19;;;;;;;19.70;8.20;;;;;;;;;;6155875;23;20660;-71
2021/12/25 13:36:50;;;;;;;18.40;7.23;;;;;;;;;;6154980;23;20169;-71
2021/12/25 13:39:24;;;;;;;18.43;7.20;;;;;;;;;;6155971;23;20202;-72
2021/12/25 13:41:57;;;;;;;19.90;8.30;;;;;;;;;;6154748;23;20228;-71
2021/12/25 13:44:33;;;;;;;14.83;6.97;;;;;;;;;;6156114;23;20177;-71
2021/12/25 13:47:00;;;;;;;23.60;8.37;;;;;;;;;;6165762;23;20176;-71
2021/12/25 13:49:40;;;;;;;16.20;7.20;;;;;;;;;;6156026;23;20177;-71
2021/12/25 13:52:36;;;;;;;39.23;14.70;;;;;;;;;;6156182;23;20176;-70
2021/12/25 13:55:16;;;;;;;30.77;11.10;;;;;;;;;;6156125;23;20165;-71
2021/12/25 13:57:52;;;;;;;25.93;9.17;;;;;;;;;;6155980;23;20169;-71
2021/12/25 14:00:29;;;;;;;24.30;8.80;;;;;;;;;;6154720;23;20267;-71
2021/12/25 14:03:04;;;;;;;25.50;9.40;;;;;;;;;;6155771;23;20585;-71
2021/12/25 14:05:34;;;;;;;16.70;7.40;;;;;;;;;;6165728;23;20170;-71
2021/12/25 14:08:02;;;;;;;29.47;10.60;;;;;;;;;;6156054;23;20170;-71
2021/12/25 14:10:31;;;;;;;40.73;15.10;;;;;;;;;;6155887;23;20201;-72
2021/12/25 14:13:01;;;;;;;19.87;8.20;;;;;;;;;;6156017;23;20212;-71
2021/12/25 14:15:33;;;;;;;31.70;10.73;;;;;;;;;;6156051;23;20460;-71
2021/12/25 14:18:05;;;;;;;18.30;8.53;;;;;;;;;;6155544;23;20509;-74
2021/12/25 14:20:35;;;;;;;24.97;9.30;;;;;;;;;;6154411;23;20208;-71
2021/12/25 14:23:13;;;;;;;20.73;8.40;;;;;;;;;;6155689;23;20256;-71
2021/12/25 14:25:53;;;;;;;24.20;8.43;;;;;;;;;;6155574;23;20205;-71
2021/12/25 14:28:28;;;;;;;50.43;12.63;;;;;;;;;;6155953;23;20495;-72
2021/12/25 14:31:08;;;;;;;80.43;21.30;;;;;;;;;;6163975;23;20245;-72
2021/12/25 14:33:57;;;;;;;26.57;12.37;;;;;;;;;;6162625;23;20621;-69
2021/12/25 14:36:33;;;;;;;38.10;12.57;;;;;;;;;;6155094;23;20174;-72
2021/12/25 14:39:00;;;;;;;25.00;8.97;;;;;;;;;;6166165;23;20601;-73
2021/12/25 14:41:34;;;;;;;23.03;8.63;;;;;;;;;;6157406;23;20201;-71
2021/12/25 14:44:15;;;;;;;21.33;8.60;;;;;;;;;;6156263;23;20235;-74
2021/12/25 14:46:43;;;;;;;28.73;9.30;;;;;;;;;;6157274;23;20178;-74
2021/12/25 14:49:10;;;;;;;38.10;11.27;;;;;;;;;;6156251;23;20200;-71
2021/12/25 14:51:38;;;;;;;48.20;14.00;;;;;;;;;;6157552;23;20182;-73
2021/12/25 14:54:06;;;;;;;47.40;20.53;;;;;;;;;;6157950;23;20185;-73
2021/12/25 14:56:42;;;;;;;24.77;9.60;;;;;;;;;;6157199;23;20506;-74
2021/12/25 14:59:19;;;;;;;23.23;9.00;;;;;;;;;;6167362;23;20620;-77
2021/12/25 15:01:50;;;;;;;23.93;9.00;;;;;;;;;;6165633;23;20641;-72
2021/12/25 15:04:27;;;;;;;22.67;9.03;;;;;;;;;;6158276;23;20229;-76
2021/12/25 15:07:08;;;;;;;26.53;10.67;;;;;;;;;;6158054;23;20176;-74
2021/12/25 15:09:44;;;;;;;26.07;11.20;;;;;;;;;;6165864;23;20169;-76
2021/12/25 15:12:20;;;;;;;23.33;9.63;;;;;;;;;;6168554;23;20193;-76
2021/12/25 15:14:51;;;;;;;33.93;11.00;;;;;;;;;;6158279;23;20177;-77
2021/12/25 15:17:26;;;;;;;40.90;15.70;;;;;;;;;;6155896;23;20258;-75
2021/12/25 15:20:02;;;;;;;68.33;18.63;;;;;;;;;;6166796;23;20197;-75
2021/12/25 15:22:29;;;;;;;38.33;14.20;;;;;;;;;;6156306;23;20169;-77
2021/12/25 15:25:00;;;;;;;37.40;14.07;;;;;;;;;;6156908;23;20618;-74
2021/12/25 15:27:37;;;;;;;42.17;17.17;;;;;;;;;;6154323;23;20530;-76
2021/12/25 15:30:11;;;;;;;36.10;12.90;;;;;;;;;;6154968;23;20647;-77
2021/12/25 15:32:41;;;;;;;29.70;10.70;;;;;;;;;;6155878;23;20170;-76
2021/12/25 15:35:12;;;;;;;28.43;10.43;;;;;;;;;;6167222;23;20177;-75
2021/12/25 15:37:45;;;;;;;32.33;13.03;;;;;;;;;;6157527;23;20189;-75
2021/12/25 15:40:16;;;;;;;35.80;10.77;;;;;;;;;;6157043;23;20213;-76
2021/12/25 15:42:44;;;;;;;29.93;10.47;;;;;;;;;;6155983;23;20181;-76
2021/12/25 15:45:13;;;;;;;27.13;10.67;;;;;;;;;;6157051;23;20260;-76
2021/12/25 15:47:43;;;;;;;25.83;10.20;;;;;;;;;;6157468;23;20193;-77
2021/12/25 15:50:12;;;;;;;24.37;9.57;;;;;;;;;;6157180;23;20184;-75
2021/12/25 15:52:40;;;;;;;43.77;12.27;;;;;;;;;;6155833;23;20205;-75
2021/12/25 15:55:08;;;;;;;126.23;28.63;;;;;;;;;;6155849;23;20181;-75
2021/12/25 15:57:36;;;;;;;30.30;13.23;;;;;;;;;;6157165;23;20204;-75
2021/12/25 16:00:05;;;;;;;34.30;13.47;;;;;;;;;;6157245;23;20189;-75
2021/12/25 16:02:33;;;;;;;29.23;10.63;;;;;;;;;;6156750;23;20301;-75
2021/12/25 16:05:01;;;;;;;31.87;12.00;;;;;;;;;;6155701;23;20188;-76
2021/12/25 16:07:28;;;;;;;26.00;9.60;;;;;;;;;;6157223;23;20178;-76
2021/12/25 16:09:55;;;;;;;23.00;9.00;;;;;;;;;;6157112;23;20695;-75
2021/12/25 16:12:23;;;;;;;25.63;10.33;;;;;;;;;;6157248;23;20186;-77
2021/12/25 16:14:50;;;;;;;23.47;8.70;;;;;;;;;;6156895;23;20228;-74
2021/12/25 16:17:17;;;;;;;19.10;8.07;;;;;;;;;;6157315;23;20275;-75
2021/12/25 16:19:45;;;;;;;38.67;13.80;;;;;;;;;;6155691;23;20565;-75